Time;durP1;ratioP1;P1;durP2;ratioP2;P2;SDS_P1;SDS_P2;PMS_P1;PMS_P2;Temp;Humidity;BMP_temperature;BMP_pressure;BME280_temperature;BME280_humidity;BME280_pressure;Samples;Min_cycle;Max_cycle;Signal;HPM_P1;HPM_P2
2022/08/28 00:02:05;;;;;;;9.48;4.97;;;;;;;21.10;73.23;94347.22;5073572;28;20247;-61
2022/08/28 00:04:31;;;;;;;9.75;5.22;;;;;;;20.97;74.63;94336.84;5073258;28;20209;-62
2022/08/28 00:06:57;;;;;;;9.68;5.25;;;;;;;21.00;75.55;94323.53;5073401;28;20273;-64
2022/08/28 00:09:23;;;;;;;10.10;4.95;;;;;;;21.13;72.74;94357.13;5073325;28;20204;-65
2022/08/28 00:11:55;;;;;;;13.75;5.35;;;;;;;21.10;72.59;94360.16;5073539;28;20196;-63
2022/08/28 00:14:22;;;;;;;7.72;4.97;;;;;;;21.11;72.72;94353.97;5055352;28;20213;-64
2022/08/28 00:16:49;;;;;;;10.05;5.63;;;;;;;21.02;73.65;94344.84;5073589;28;20205;-62
2022/08/28 00:19:17;;;;;;;10.35;6.05;;;;;;;20.90;75.42;94331.72;5073001;28;20212;-63
2022/08/28 00:21:44;;;;;;;9.27;5.25;;;;;;;20.56;77.87;94294.94;5055178;28;20224;-64
2022/08/28 00:24:10;;;;;;;9.70;5.25;;;;;;;20.42;79.76;94286.38;5073025;28;20209;-63
2022/08/28 00:29:19;;;;;;;10.07;5.00;;;;;;;20.10;82.56;94306.00;5073054;28;20220;-64
2022/08/28 00:31:45;;;;;;;8.52;5.38;;;;;;;20.12;83.26;94312.75;5054960;28;20193;-63
2022/08/28 00:34:11;;;;;;;9.55;5.20;;;;;;;19.91;84.81;94295.66;5054936;28;20720;-65
2022/08/28 00:36:37;;;;;;;11.45;5.75;;;;;;;19.92;85.19;94297.22;5073321;28;20196;-64
2022/08/28 00:39:04;;;;;;;8.25;5.32;;;;;;;19.82;85.56;94287.28;5072870;28;20661;-63
2022/08/28 00:41:31;;;;;;;12.88;6.00;;;;;;;19.95;85.36;94304.59;5073235;28;20196;-65
2022/08/28 00:44:14;;;;;;;10.70;6.13;;;;;;;19.91;85.57;94300.81;5072947;28;20284;-61
2022/08/28 00:46:42;;;;;;;15.73;5.13;;;;;;;20.00;85.08;94313.31;5054875;28;20192;-65
2022/08/28 00:49:08;;;;;;;10.00;5.03;;;;;;;19.85;86.57;94293.84;5072737;28;20197;-60
2022/08/28 00:54:22;;;;;;;13.77;5.70;;;;;;;20.05;85.45;94316.13;5072865;28;20251;-62
2022/08/28 00:56:48;;;;;;;8.60;5.13;;;;;;;19.87;86.68;94297.81;5073114;28;20208;-63
2022/08/28 00:59:17;;;;;;;10.82;5.25;;;;;;;19.90;86.73;94294.84;5072459;28;20257;-63
2022/08/28 01:01:44;;;;;;;10.18;5.30;;;;;;;20.00;86.13;94305.59;5072907;28;20185;-64
2022/08/28 01:04:19;;;;;;;9.05;5.43;;;;;;;19.94;86.53;94306.38;5072418;28;20231;-64
2022/08/28 01:06:47;;;;;;;10.40;5.38;;;;;;;19.84;87.59;94287.88;5072690;28;20186;-64
2022/08/28 01:09:14;;;;;;;7.05;5.32;;;;;;;19.79;87.22;94287.69;5072389;28;20271;-63
2022/08/28 01:11:42;;;;;;;11.73;5.60;;;;;;;19.70;87.89;94288.03;5072301;28;20201;-63
2022/08/28 01:14:10;;;;;;;14.93;5.50;;;;;;;19.54;89.04;94272.91;5072205;28;20200;-63
2022/08/28 01:16:36;;;;;;;14.30;5.50;;;;;;;19.54;88.87;94278.88;5072493;28;20181;-64
2022/08/28 01:19:08;;;;;;;7.35;5.28;;;;;;;19.52;88.80;94280.84;5054189;28;20221;-62
2022/08/28 01:21:43;;;;;;;10.50;6.10;;;;;;;19.56;88.61;94289.78;5072831;28;20662;-62
2022/08/28 01:24:13;;;;;;;12.48;5.68;;;;;;;19.57;88.24;94290.59;5054172;28;20208;-61
2022/08/28 01:26:39;;;;;;;13.45;5.70;;;;;;;19.58;88.66;94290.38;5072112;28;20188;-61
2022/08/28 01:29:07;;;;;;;10.90;6.13;;;;;;;19.62;88.78;94291.59;5071898;28;20200;-63
2022/08/28 01:31:34;;;;;;;18.08;6.25;;;;;;;19.52;89.09;94293.75;5071653;28;20195;-62
2022/08/28 01:34:00;;;;;;;13.73;6.25;;;;;;;19.41;89.31;94294.31;5071855;28;20213;-65
2022/08/28 01:36:27;;;;;;;10.20;5.90;;;;;;;19.40;89.43;94295.28;5071727;28;20189;-63
2022/08/28 01:39:05;;;;;;;8.73;5.40;;;;;;;19.31;88.99;94301.53;5071755;28;20278;-63
2022/08/28 01:41:32;;;;;;;13.73;6.28;;;;;;;19.40;89.18;94303.00;5071805;28;20184;-61
2022/08/28 01:43:58;;;;;;;8.77;5.10;;;;;;;19.41;88.96;94311.53;5071889;28;20239;-62
2022/08/28 01:46:24;;;;;;;8.90;5.68;;;;;;;19.43;88.82;94307.00;5053539;28;20215;-64
2022/08/28 01:48:50;;;;;;;10.43;5.65;;;;;;;19.43;88.64;94312.16;5071780;28;20216;-62
2022/08/28 01:51:16;;;;;;;7.55;5.57;;;;;;;19.46;88.30;94312.56;5072112;28;20192;-65
2022/08/28 01:53:42;;;;;;;15.32;6.07;;;;;;;19.42;88.94;94303.63;5053649;28;20205;-63
2022/08/28 01:56:11;;;;;;;11.05;5.55;;;;;;;19.36;89.05;94303.56;5071739;28;20665;-64
2022/08/28 01:58:38;;;;;;;8.48;5.22;;;;;;;19.30;89.65;94297.38;5071313;28;20219;-63
2022/08/28 02:01:09;;;;;;;9.85;5.10;;;;;;;19.28;89.88;94300.16;5071500;28;20688;-63
2022/08/28 02:03:35;;;;;;;13.20;5.43;;;;;;;19.22;90.36;94295.75;5071578;28;20686;-62
2022/08/28 02:06:00;;;;;;;11.23;5.95;;;;;;;19.19;90.59;94293.56;5053720;28;20234;-63
2022/08/28 02:08:26;;;;;;;7.35;5.65;;;;;;;19.08;90.95;94293.31;5071492;28;20594;-62
2022/08/28 02:10:51;;;;;;;11.32;5.88;;;;;;;19.06;91.39;94292.69;5053684;28;20257;-64
2022/08/28 02:13:17;;;;;;;10.70;5.47;;;;;;;19.02;91.51;94291.50;5053594;28;20181;-64
2022/08/28 02:15:42;;;;;;;10.25;6.53;;;;;;;19.01;91.80;94301.00;5071703;28;20224;-63
2022/08/28 02:18:09;;;;;;;9.90;5.50;;;;;;;19.08;92.08;94294.09;5053438;28;20205;-65
2022/08/28 02:20:35;;;;;;;9.38;6.05;;;;;;;19.22;91.30;94300.91;5053343;28;20266;-62
2022/08/28 02:23:01;;;;;;;10.00;5.60;;;;;;;19.28;90.18;94318.19;5070604;28;20177;-60
2022/08/28 02:25:27;;;;;;;12.32;6.28;;;;;;;19.29;90.32;94319.78;5070359;28;20276;-63
2022/08/28 02:27:53;;;;;;;9.82;6.45;;;;;;;19.25;90.08;94315.19;5071012;28;20192;-63
2022/08/28 02:30:19;;;;;;;11.27;5.97;;;;;;;19.24;90.70;94308.47;5071247;28;20238;-63
2022/08/28 02:32:45;;;;;;;14.75;5.93;;;;;;;19.10;90.82;94305.03;5071638;28;20689;-63
2022/08/28 02:35:13;;;;;;;6.35;5.40;;;;;;;19.10;91.34;94294.72;5071064;28;20287;-64
2022/08/28 02:37:41;;;;;;;7.80;5.72;;;;;;;19.03;91.92;94295.63;5053236;28;20250;-64
2022/08/28 02:40:07;;;;;;;10.00;5.60;;;;;;;18.93;92.80;94292.59;5053227;28;20626;-62
2022/08/28 02:42:33;;;;;;;16.00;5.72;;;;;;;18.99;92.35;94304.72;5053004;28;20239;-64
2022/08/28 02:44:58;;;;;;;14.68;5.78;;;;;;;18.97;92.45;94297.19;5070942;28;20208;-62
2022/08/28 02:47:24;;;;;;;10.68;6.38;;;;;;;18.94;92.74;94295.03;5071229;28;20192;-63
2022/08/28 02:49:50;;;;;;;7.68;5.40;;;;;;;19.00;92.44;94309.72;5068211;22;20228;-60
2022/08/28 02:52:15;;;;;;;14.95;5.85;;;;;;;19.02;92.69;94306.94;5069950;28;20190;-62
2022/08/28 02:54:41;;;;;;;13.38;6.00;;;;;;;19.04;93.09;94307.56;5058244;28;20300;-60
2022/08/28 02:57:08;;;;;;;13.57;6.10;;;;;;;19.10;91.55;94327.41;5050811;28;20209;-63
2022/08/28 02:59:37;;;;;;;8.10;5.57;;;;;;;19.12;91.58;94320.28;5049342;28;20213;-61
2022/08/28 03:02:05;;;;;;;11.07;6.85;;;;;;;18.93;92.10;94318.38;5050625;28;20217;-60
2022/08/28 03:04:32;;;;;;;8.63;6.10;;;;;;;18.92;91.89;94321.94;5051112;28;20205;-62
2022/08/28 03:06:58;;;;;;;12.07;5.70;;;;;;;18.88;92.05;94318.16;5050274;28;20193;-64
2022/08/28 03:09:24;;;;;;;9.25;6.10;;;;;;;18.96;91.61;94323.16;5050021;28;20276;-62
2022/08/28 03:11:52;;;;;;;9.65;5.78;;;;;;;19.05;91.23;94337.47;5049597;28;20188;-62
2022/08/28 03:14:17;;;;;;;13.68;5.60;;;;;;;19.07;91.03;94332.94;5050787;28;20201;-64
2022/08/28 03:16:43;;;;;;;16.23;6.30;;;;;;;19.19;90.79;94344.31;5050537;28;20564;-63
2022/08/28 03:19:08;;;;;;;7.75;4.93;;;;;;;19.27;89.33;94363.00;5049354;28;20242;-64
2022/08/28 03:21:34;;;;;;;10.48;5.75;;;;;;;19.17;90.26;94354.81;5050625;28;20182;-65
2022/08/28 03:23:59;;;;;;;10.98;6.20;;;;;;;19.13;91.18;94332.97;5050778;28;20209;-64
2022/08/28 03:26:25;;;;;;;8.05;6.07;;;;;;;19.12;89.58;94364.91;5050825;28;20193;-64
2022/08/28 03:28:52;;;;;;;11.82;5.63;;;;;;;19.11;89.79;94355.56;5050494;28;20213;-63
2022/08/28 03:31:22;;;;;;;9.02;5.82;;;;;;;19.13;90.70;94332.16;5050612;28;20185;-63
2022/08/28 03:33:48;;;;;;;12.57;5.88;;;;;;;19.05;91.01;94340.84;5050266;28;20709;-63
2022/08/28 03:36:20;;;;;;;10.15;5.72;;;;;;;19.08;89.61;94361.09;5053893;28;20247;-62
2022/08/28 03:38:47;;;;;;;11.50;5.82;;;;;;;18.98;89.70;94359.84;5053878;28;20209;-60
2022/08/28 03:41:23;;;;;;;9.63;5.95;;;;;;;18.90;90.41;94350.47;5052734;28;20243;-64
2022/08/28 03:43:50;;;;;;;8.40;5.82;;;;;;;18.83;90.91;94354.78;5053900;28;20205;-62
2022/08/28 03:46:18;;;;;;;14.00;6.60;;;;;;;18.84;91.08;94348.66;5053723;28;20188;-64
2022/08/28 03:48:45;;;;;;;14.05;6.00;;;;;;;18.94;90.07;94368.94;5052457;28;20582;-63
2022/08/28 03:51:17;;;;;;;10.45;5.60;;;;;;;18.82;90.53;94360.13;5052453;28;20666;-62
2022/08/28 03:53:42;;;;;;;11.40;5.93;;;;;;;18.73;91.24;94349.16;5053642;28;20213;-61
2022/08/28 03:56:15;;;;;;;11.43;5.45;;;;;;;18.62;92.17;94343.72;5053848;28;20607;-62
2022/08/28 03:58:42;;;;;;;10.27;5.35;;;;;;;18.65;92.32;94345.91;5053874;28;20240;-61
2022/08/28 04:01:08;;;;;;;6.88;5.15;;;;;;;18.50;92.95;94338.28;5053722;28;20186;-63
2022/08/28 04:03:34;;;;;;;9.88;5.80;;;;;;;18.46;93.75;94338.84;5062878;22;20220;-63
2022/08/28 04:06:00;;;;;;;10.80;5.75;;;;;;;18.42;94.43;94341.72;5073617;28;20192;-64
2022/08/28 04:08:27;;;;;;;9.43;6.53;;;;;;;18.43;94.50;94342.56;5071219;28;20732;-62
2022/08/28 04:10:53;;;;;;;12.65;5.75;;;;;;;18.44;94.96;94346.75;5053762;28;20272;-65
2022/08/28 04:13:20;;;;;;;11.75;5.80;;;;;;;18.48;94.86;94347.97;5052073;28;20197;-63
2022/08/28 04:15:56;;;;;;;9.98;5.47;;;;;;;18.62;94.00;94364.31;5053338;28;20571;-62
2022/08/28 04:18:21;;;;;;;16.88;5.82;;;;;;;18.63;94.14;94363.31;5052108;28;20217;-64
2022/08/28 04:20:57;;;;;;;8.77;5.65;;;;;;;18.66;94.01;94358.63;5053268;28;20273;-61
2022/08/28 04:23:23;;;;;;;12.65;6.35;;;;;;;18.71;93.53;94369.16;5053180;28;20189;-64
2022/08/28 04:25:48;;;;;;;10.50;6.45;;;;;;;18.76;93.02;94381.47;5051871;28;20197;-62
2022/08/28 04:28:14;;;;;;;10.50;5.57;;;;;;;18.63;93.76;94371.84;5051879;28;20648;-63
2022/08/28 04:30:40;;;;;;;14.00;5.63;;;;;;;18.53;94.41;94366.22;5053201;28;20192;-63
2022/08/28 04:33:05;;;;;;;9.45;5.97;;;;;;;18.38;94.88;94362.91;5053270;28;20184;-62
2022/08/28 04:35:30;;;;;;;8.75;5.50;;;;;;;18.21;96.24;94366.69;5052994;28;20240;-63
2022/08/28 04:37:56;;;;;;;8.75;5.57;;;;;;;18.15;97.02;94368.22;5053007;28;20201;-62
2022/08/28 04:40:23;;;;;;;10.18;6.05;;;;;;;18.19;96.72;94386.66;5051694;28;20209;-64
2022/08/28 04:42:50;;;;;;;13.38;6.05;;;;;;;18.12;97.41;94384.00;5052916;28;20184;-64
2022/08/28 04:45:15;;;;;;;9.60;6.30;;;;;;;18.15;97.57;94385.41;5051144;28;20213;-64
2022/08/28 04:47:42;;;;;;;12.45;6.43;;;;;;;18.17;97.45;94381.69;5052528;28;20181;-64
2022/08/28 04:50:10;;;;;;;8.82;6.47;;;;;;;18.31;96.83;94386.00;5052847;28;20201;-64
2022/08/28 04:52:36;;;;;;;15.40;6.38;;;;;;;18.36;96.15;94388.03;5052610;28;20186;-64
2022/08/28 04:55:03;;;;;;;11.82;5.93;;;;;;;18.43;95.82;94399.19;5051378;28;20223;-63
2022/08/28 04:57:29;;;;;;;20.92;6.22;;;;;;;18.36;96.29;94381.06;5052521;28;20209;-61
2022/08/28 04:59:57;;;;;;;11.73;6.03;;;;;;;18.38;96.30;94392.00;5052496;28;20225;-63
2022/08/28 05:02:23;;;;;;;9.57;5.63;;;;;;;18.53;95.72;94406.59;5052773;28;20185;-63
2022/08/28 05:04:48;;;;;;;12.75;6.10;;;;;;;18.55;95.66;94399.50;5052725;28;20569;-63
2022/08/28 05:07:14;;;;;;;8.85;6.10;;;;;;;18.62;95.49;94405.53;5052498;28;20181;-65
2022/08/28 05:09:39;;;;;;;12.65;6.40;;;;;;;18.69;95.71;94401.22;5052745;28;20293;-62
2022/08/28 05:12:05;;;;;;;8.38;5.65;;;;;;;18.80;95.26;94404.09;5051251;28;20224;-64
2022/08/28 05:14:31;;;;;;;8.90;6.03;;;;;;;19.06;92.92;94429.28;5052203;28;20608;-61
2022/08/28 05:16:57;;;;;;;12.45;6.45;;;;;;;19.16;91.18;94456.31;5052483;28;20617;-63
2022/08/28 05:19:26;;;;;;;12.02;5.82;;;;;;;19.13;91.02;94456.69;5052276;28;20213;-64
2022/08/28 05:21:53;;;;;;;15.15;6.10;;;;;;;19.24;90.45;94468.28;5052281;28;20243;-62
2022/08/28 05:24:19;;;;;;;16.75;6.80;;;;;;;19.26;90.75;94458.56;5051245;28;20748;-63
2022/08/28 05:26:45;;;;;;;11.48;6.18;;;;;;;19.34;91.10;94455.06;5052335;28;20182;-65
2022/08/28 05:29:10;;;;;;;11.07;5.65;;;;;;;19.58;89.12;94488.16;5052599;28;20217;-65
2022/08/28 05:31:37;;;;;;;9.52;5.82;;;;;;;19.65;88.77;94492.41;5052251;28;20182;-63
2022/08/28 05:34:04;;;;;;;8.82;6.05;;;;;;;19.75;87.53;94507.53;5052443;28;20217;-62
2022/08/28 05:36:33;;;;;;;11.55;5.55;;;;;;;19.78;87.52;94505.38;5052103;28;20197;-65
2022/08/28 05:39:00;;;;;;;9.45;6.47;;;;;;;19.84;87.87;94501.22;5051974;28;20730;-62
2022/08/28 05:41:29;;;;;;;14.02;6.20;;;;;;;19.99;86.64;94523.38;5052031;28;20181;-63
2022/08/28 05:43:57;;;;;;;12.77;5.55;;;;;;;20.00;86.49;94522.38;5050486;28;20232;-65
2022/08/28 05:46:23;;;;;;;13.93;6.13;;;;;;;19.99;87.29;94512.25;5051837;28;20185;-64
2022/08/28 05:48:49;;;;;;;10.18;6.00;;;;;;;19.99;87.13;94513.03;5051958;28;20209;-65
2022/08/28 05:51:18;;;;;;;10.25;5.57;;;;;;;20.19;85.03;94536.41;5050647;28;20190;-65
2022/08/28 05:53:45;;;;;;;11.48;5.65;;;;;;;20.17;85.50;94533.19;5052168;28;20216;-63
2022/08/28 05:56:14;;;;;;;13.02;6.75;;;;;;;20.22;86.17;94524.91;5051829;28;20204;-64
2022/08/28 05:58:40;;;;;;;11.02;6.65;;;;;;;20.50;83.23;94557.38;5050794;28;20610;-62
2022/08/28 06:01:18;;;;;;;9.07;6.45;;;;;;;20.54;83.02;94563.75;5051915;28;20193;-61
2022/08/28 06:04:09;;;;;;;14.65;5.40;;;;;;;20.71;82.47;94566.81;5051545;28;20216;-63
2022/08/28 06:06:38;;;;;;;11.45;5.97;;;;;;;20.65;83.84;94541.75;5051864;28;20188;-61
2022/08/28 06:09:29;;;;;;;11.02;6.15;;;;;;;20.76;83.11;94549.75;5065604;22;20224;-64
2022/08/28 06:11:57;;;;;;;11.50;5.90;;;;;;;20.73;84.24;94531.25;5071138;28;20208;-63
2022/08/28 06:14:23;;;;;;;14.65;6.60;;;;;;;20.63;85.31;94520.50;5061076;28;20635;-63
2022/08/28 06:16:52;;;;;;;11.88;6.70;;;;;;;20.68;86.03;94511.19;5050138;28;20292;-64
2022/08/28 06:19:18;;;;;;;13.02;6.93;;;;;;;20.73;85.98;94511.38;5051595;28;20206;-61
2022/08/28 06:21:45;;;;;;;9.52;6.15;;;;;;;20.84;85.87;94522.94;5051453;28;20647;-63
2022/08/28 06:24:12;;;;;;;15.88;5.95;;;;;;;20.94;86.02;94510.44;5059647;22;20217;-64
2022/08/28 06:26:37;;;;;;;12.25;6.47;;;;;;;21.26;83.44;94545.13;5051208;28;20721;-65
2022/08/28 06:29:06;;;;;;;13.80;6.82;;;;;;;21.27;83.38;94550.06;5033477;28;20217;-63
2022/08/28 06:31:32;;;;;;;15.18;7.10;;;;;;;21.28;83.08;94543.94;5051123;28;20209;-63
2022/08/28 06:33:59;;;;;;;11.50;6.80;;;;;;;21.38;82.98;94548.69;5051545;28;20213;-63
2022/08/28 06:36:27;;;;;;;12.18;7.55;;;;;;;21.46;82.75;94559.66;5033219;28;20245;-64
2022/08/28 06:38:56;;;;;;;10.00;6.78;;;;;;;21.57;82.31;94568.63;5033284;28;20709;-64
2022/08/28 06:41:22;;;;;;;11.60;7.75;;;;;;;21.61;81.35;94583.53;5051157;28;20189;-63
2022/08/28 06:43:48;;;;;;;13.80;6.78;;;;;;;21.39;83.16;94548.50;5051145;28;20289;-62
2022/08/28 06:46:13;;;;;;;11.20;6.85;;;;;;;21.53;82.92;94557.84;5050949;28;20182;-62
2022/08/28 06:48:39;;;;;;;12.45;6.78;;;;;;;21.82;81.16;94581.78;5051016;28;20594;-64
2022/08/28 06:51:08;;;;;;;13.48;6.80;;;;;;;21.88;80.18;94593.91;5033030;28;20355;-62
2022/08/28 06:53:35;;;;;;;9.00;6.20;;;;;;;21.93;80.14;94589.75;5050737;28;20572;-63
2022/08/28 06:56:05;;;;;;;19.40;6.55;;;;;;;21.99;80.18;94591.53;5050844;28;20273;-63
2022/08/28 06:58:31;;;;;;;15.30;7.30;;;;;;;22.12;79.52;94601.09;5050930;28;20655;-62
2022/08/28 07:01:06;;;;;;;12.25;6.38;;;;;;;22.32;78.63;94615.56;5050813;28;20185;-64
2022/08/28 07:03:32;;;;;;;12.13;6.97;;;;;;;22.27;78.08;94617.19;5051017;28;20208;-62
2022/08/28 07:05:59;;;;;;;25.70;13.02;;;;;;;22.22;77.47;94619.59;5050648;28;20643;-63
2022/08/28 07:08:26;;;;;;;13.50;7.82;;;;;;;22.30;77.56;94621.97;5050319;28;20222;-63
2022/08/28 07:10:52;;;;;;;16.08;6.90;;;;;;;22.56;76.91;94629.69;5032883;28;20190;-63
2022/08/28 07:13:22;;;;;;;15.00;6.28;;;;;;;22.70;75.72;94646.03;5033196;28;20685;-63
2022/08/28 07:15:48;;;;;;;10.10;5.63;;;;;;;22.95;75.15;94660.69;5050473;28;20186;-63
2022/08/28 07:18:13;;;;;;;13.20;5.65;;;;;;;23.12;72.64;94686.97;5050895;28;20220;-65
2022/08/28 07:20:39;;;;;;;13.45;6.75;;;;;;;23.23;72.14;94697.50;5032667;28;20189;-63
2022/08/28 07:23:04;;;;;;;12.73;6.50;;;;;;;23.46;71.49;94706.63;5050612;28;20221;-64
2022/08/28 07:25:30;;;;;;;13.82;6.93;;;;;;;23.49;72.06;94688.03;5050457;28;20300;-63
2022/08/28 07:27:56;;;;;;;10.80;6.35;;;;;;;23.60;71.14;94701.16;5050650;28;20277;-62
2022/08/28 07:30:21;;;;;;;20.55;7.55;;;;;;;23.77;71.46;94691.88;5050302;28;20335;-65
2022/08/28 07:32:48;;;;;;;13.85;6.85;;;;;;;23.68;70.72;94697.50;5050399;28;20551;-63
2022/08/28 07:35:15;;;;;;;13.05;7.45;;;;;;;23.83;69.34;94713.59;5032640;28;20255;-61
2022/08/28 07:37:41;;;;;;;13.38;6.10;;;;;;;24.08;68.50;94730.84;5050260;28;20721;-62
2022/08/28 07:40:08;;;;;;;13.27;6.10;;;;;;;24.16;67.83;94735.78;5032872;28;20206;-64
2022/08/28 07:45:19;;;;;;;16.90;6.40;;;;;;;24.62;65.37;94761.44;5050285;28;20216;-64
2022/08/28 07:47:45;;;;;;;10.82;5.88;;;;;;;24.76;63.58;94788.94;5050109;28;20193;-64
2022/08/28 07:50:10;;;;;;;15.80;6.25;;;;;;;24.82;63.50;94772.50;5050094;28;20205;-63
2022/08/28 07:52:36;;;;;;;12.48;5.95;;;;;;;25.01;63.78;94749.09;5032128;28;20181;-64
2022/08/28 07:55:03;;;;;;;11.73;6.32;;;;;;;25.17;59.94;94818.81;5031989;28;20274;-64
2022/08/28 07:57:30;;;;;;;14.35;5.53;;;;;;;25.02;61.18;94779.28;5049864;28;20208;-64
2022/08/28 07:59:58;;;;;;;14.82;5.72;;;;;;;25.12;61.61;94770.00;5032111;28;20229;-63
2022/08/28 08:02:24;;;;;;;19.35;6.05;;;;;;;25.28;59.79;94802.47;5032074;28;20196;-63
2022/08/28 08:04:49;;;;;;;12.80;5.53;;;;;;;25.37;59.14;94822.78;5049815;28;20202;-64
2022/08/28 08:07:16;;;;;;;18.63;6.03;;;;;;;25.49;60.04;94799.47;5032036;28;20253;-65
2022/08/28 08:09:43;;;;;;;11.50;5.80;;;;;;;25.57;60.25;94781.72;5050094;28;20217;-65
2022/08/28 08:12:11;;;;;;;12.77;5.68;;;;;;;25.60;61.20;94760.47;5049891;28;20352;-64
2022/08/28 08:14:38;;;;;;;11.40;5.00;;;;;;;25.74;60.18;94772.31;5049984;28;20210;-64
2022/08/28 08:17:05;;;;;;;14.18;6.07;;;;;;;25.90;59.81;94786.53;5049812;28;20315;-65
2022/08/28 08:19:31;;;;;;;14.07;5.75;;;;;;;26.07;59.39;94782.31;5049862;28;20245;-65
2022/08/28 08:21:56;;;;;;;14.18;5.28;;;;;;;26.12;57.06;94833.78;5051866;28;20664;-64
2022/08/28 08:24:24;;;;;;;12.95;6.00;;;;;;;26.19;58.84;94777.94;5053064;28;20607;-62
2022/08/28 08:26:52;;;;;;;18.13;6.38;;;;;;;26.32;57.93;94806.41;5053013;28;20181;-65
2022/08/28 08:29:19;;;;;;;13.25;5.97;;;;;;;26.34;54.90;94874.00;5053034;28;20244;-63
2022/08/28 08:31:45;;;;;;;25.58;12.57;;;;;;;26.24;57.90;94788.47;5053038;28;20588;-64
2022/08/28 08:34:11;;;;;;;17.10;9.50;;;;;;;26.12;57.59;94794.69;5053367;28;20605;-63
2022/08/28 08:36:38;;;;;;;15.45;7.85;;;;;;;26.26;57.15;94796.09;5034997;28;20570;-64
2022/08/28 08:39:06;;;;;;;15.25;7.20;;;;;;;26.54;57.26;94785.84;5053017;28;20214;-65
2022/08/28 08:41:46;;;;;;;16.58;6.78;;;;;;;26.89;56.04;94819.81;5052857;28;20182;-64
2022/08/28 08:44:20;;;;;;;18.42;6.63;;;;;;;27.11;55.53;94832.09;5034938;28;20308;-65
2022/08/28 08:47:15;;;;;;;16.65;6.95;;;;;;;26.98;55.27;94837.53;5053121;28;20624;-64
2022/08/28 08:50:09;;;;;;;12.63;6.85;;;;;;;26.87;54.07;94861.81;5030702;28;20229;-64
2022/08/28 08:52:38;;;;;;;13.45;6.32;;;;;;;27.01;54.49;94839.69;5050702;28;20241;-63
2022/08/28 08:57:38;;;;;;;12.32;6.60;;;;;;;27.56;52.66;94881.97;5080271;22;20232;-64
2022/08/28 09:00:09;;;;;;;12.75;6.25;;;;;;;27.97;51.42;94905.34;5056668;28;20218;-64
2022/08/28 09:02:44;;;;;;;11.95;6.22;;;;;;;28.23;51.74;94889.13;5052810;28;21047;-65
2022/08/28 09:05:15;;;;;;;18.80;6.72;;;;;;;28.41;49.81;94937.06;5052394;28;20248;-65
2022/08/28 09:07:56;;;;;;;19.55;7.28;;;;;;;28.57;49.08;94947.63;5052750;28;20276;-63
2022/08/28 09:10:31;;;;;;;13.02;6.25;;;;;;;29.00;48.46;94966.22;5051082;28;20205;-61
2022/08/28 09:13:26;;;;;;;14.02;6.38;;;;;;;29.19;47.40;94820.09;5052642;28;20268;-64
2022/08/28 09:15:52;;;;;;;13.98;6.45;;;;;;;29.21;46.29;94822.50;5031115;28;20205;-64
2022/08/28 09:18:25;;;;;;;15.05;6.63;;;;;;;29.32;45.67;94806.69;5052554;28;20224;-64
2022/08/28 09:20:54;;;;;;;14.35;6.70;;;;;;;29.50;44.38;94827.38;5052737;28;20199;-66
2022/08/28 09:23:25;;;;;;;13.52;5.57;;;;;;;29.44;42.91;94844.06;5052318;28;20197;-66
2022/08/28 09:26:03;;;;;;;13.65;5.63;;;;;;;29.68;43.24;94813.97;5053166;28;20660;-65
2022/08/28 09:28:34;;;;;;;12.18;6.80;;;;;;;29.88;43.61;94791.69;5052333;28;20205;-63
2022/08/28 09:31:14;;;;;;;14.52;7.32;;;;;;;29.64;43.69;94789.28;5052452;28;20283;-65
2022/08/28 09:33:50;;;;;;;15.50;6.38;;;;;;;30.21;43.47;94792.28;5052005;28;20205;-67
2022/08/28 09:36:32;;;;;;;13.15;6.75;;;;;;;30.37;44.84;94769.63;5052308;28;20753;-66
2022/08/28 09:39:14;;;;;;;17.45;6.57;;;;;;;30.91;42.62;94807.16;5051895;28;20247;-67
2022/08/28 09:45:01;;;;;;;20.23;6.63;;;;;;;30.96;40.32;94842.13;5052222;28;20304;-67
2022/08/28 09:47:40;;;;;;;20.05;6.90;;;;;;;30.71;39.90;94835.81;5051877;28;20193;-65
2022/08/28 09:50:44;;;;;;;15.82;6.20;;;;;;;31.20;42.63;94769.75;5051563;28;20221;-64
2022/08/28 09:53:10;;;;;;;13.43;6.05;;;;;;;31.58;40.15;94810.72;5073931;22;20225;-65
2022/08/28 09:56:09;;;;;;;12.25;5.65;;;;;;;31.96;38.22;94851.69;5051658;28;20668;-64
2022/08/28 09:58:44;;;;;;;14.85;5.97;;;;;;;31.85;37.96;94844.78;5051433;28;20308;-64
2022/08/28 10:01:38;;;;;;;15.32;5.70;;;;;;;31.74;38.64;94814.19;5051911;28;20232;-65
2022/08/28 10:04:14;;;;;;;12.38;5.30;;;;;;;31.26;39.10;94791.59;5033915;28;20237;-64
2022/08/28 10:06:41;;;;;;;14.82;5.93;;;;;;;31.59;37.34;94829.94;5051461;28;20204;-63
2022/08/28 10:09:28;;;;;;;13.38;5.18;;;;;;;32.12;37.54;94827.00;5051442;28;20213;-66
2022/08/28 10:12:30;;;;;;;14.18;5.57;;;;;;;32.35;37.95;94787.06;5051847;28;20190;-65
2022/08/28 10:14:56;;;;;;;5.43;4.82;;;;;;;32.73;37.82;94796.31;5050048;28;20212;-66
2022/08/28 10:17:27;;;;;;;14.35;7.60;;;;;;;33.17;37.67;94809.78;5051595;28;20220;-64
2022/08/28 10:20:08;;;;;;;9.30;5.65;;;;;;;33.52;37.16;94799.16;5050443;28;20275;-64
2022/08/28 10:22:40;;;;;;;11.65;5.03;;;;;;;33.88;34.75;94866.59;5050339;28;20197;-66
2022/08/28 10:25:32;;;;;;;12.68;5.70;;;;;;;34.21;34.82;94844.84;5051552;28;20209;-64
2022/08/28 10:28:21;;;;;;;12.25;5.47;;;;;;;33.92;33.46;94862.34;5051813;28;20194;-63
2022/08/28 10:31:02;;;;;;;11.63;6.35;;;;;;;33.41;33.27;94866.16;5050271;28;20225;-64
2022/08/28 10:33:33;;;;;;;15.07;5.72;;;;;;;33.92;34.15;94825.41;5051313;28;20217;-62
2022/08/28 10:36:19;;;;;;;11.65;5.60;;;;;;;33.72;32.55;94849.22;5050107;28;20288;-65
2022/08/28 10:39:01;;;;;;;11.02;5.30;;;;;;;33.38;33.40;94821.84;5049902;28;20217;-64
2022/08/28 10:41:43;;;;;;;14.32;6.07;;;;;;;33.24;32.80;94837.44;5051203;28;20213;-65
2022/08/28 10:44:16;;;;;;;14.23;5.90;;;;;;;33.66;32.12;94845.81;5048983;28;20241;-66
2022/08/28 10:46:48;;;;;;;15.57;6.70;;;;;;;33.64;33.71;94797.00;5051159;28;20310;-65
2022/08/28 10:49:30;;;;;;;11.15;5.55;;;;;;;33.41;33.10;94802.88;5051269;28;20205;-64
2022/08/28 10:52:06;;;;;;;10.98;5.88;;;;;;;33.53;33.92;94782.28;5051199;28;20197;-64
2022/08/28 10:54:42;;;;;;;13.60;6.28;;;;;;;34.48;34.10;94768.63;5049703;28;20296;-67
2022/08/28 10:57:31;;;;;;;12.43;5.65;;;;;;;34.16;32.09;94799.97;5051262;28;20189;-63
2022/08/28 11:00:02;;;;;;;8.38;4.90;;;;;;;32.91;31.20;94828.19;5050951;28;20725;-65
2022/08/28 11:02:29;;;;;;;15.13;5.88;;;;;;;32.50;31.92;94792.38;5051083;28;20213;-64
2022/08/28 11:04:56;;;;;;;10.50;5.20;;;;;;;33.12;31.50;94796.59;5050793;28;20266;-64
2022/08/28 11:07:50;;;;;;;10.07;5.70;;;;;;;33.84;30.90;94797.72;5051021;28;20190;-65
2022/08/28 11:10:39;;;;;;;14.52;5.45;;;;;;;34.34;30.22;94820.47;5050856;28;20213;-66
2022/08/28 11:13:07;;;;;;;10.55;4.80;;;;;;;34.85;28.11;94857.16;5050633;28;20198;-62
2022/08/28 11:15:34;;;;;;;16.27;5.95;;;;;;;34.78;28.49;94833.69;5050724;28;20178;-67
2022/08/28 11:18:09;;;;;;;10.52;5.55;;;;;;;35.03;28.80;94817.63;5049357;28;20220;-65
2022/08/28 11:20:36;;;;;;;12.13;5.45;;;;;;;35.42;28.33;94828.13;5050558;28;20223;-65
2022/08/28 11:23:15;;;;;;;16.95;5.90;;;;;;;35.23;28.45;94808.75;5061807;22;20221;-65
2022/08/28 11:25:49;;;;;;;9.80;4.70;;;;;;;35.25;28.67;94796.03;5050815;28;20672;-65
2022/08/28 11:28:17;;;;;;;10.38;5.97;;;;;;;34.76;29.33;94763.66;5050841;28;20566;-64
2022/08/28 11:30:48;;;;;;;12.80;6.22;;;;;;;34.94;28.28;94787.56;5050432;28;20189;-64
2022/08/28 11:36:19;;;;;;;15.80;6.13;;;;;;;35.44;27.86;94787.09;5085744;22;20623;-64
2022/08/28 11:38:44;;;;;;;14.88;5.20;;;;;;;35.52;29.39;94740.72;5065197;28;20741;-65
2022/08/28 11:41:13;;;;;;;14.32;8.30;;;;;;;35.34;27.85;94791.69;5050330;28;20285;-65
2022/08/28 11:43:43;;;;;;;25.08;19.90;;;;;;;34.68;28.21;94763.19;5050384;28;20276;-66
2022/08/28 11:46:23;;;;;;;10.70;5.47;;;;;;;35.52;27.88;94783.06;5049548;28;20236;-64
2022/08/28 11:48:55;;;;;;;8.50;6.07;;;;;;;34.43;29.48;94736.16;5050137;28;20217;-62
2022/08/28 11:51:39;;;;;;;8.98;5.68;;;;;;;34.98;29.11;94751.59;5050187;28;20182;-64
2022/08/28 11:54:24;;;;;;;15.23;6.05;;;;;;;35.48;29.56;94721.19;5050235;28;20259;-64
2022/08/28 11:57:01;;;;;;;18.77;6.90;;;;;;;34.96;29.33;94706.13;5052456;28;20294;-65